Saint Clair Shores, Michigan
Current Conditions -  °F | °C
As of 4:55 PM on Monday 22 Dec 2014 (Local Time) from KMTC Reporting Station
Broken Clouds Broken Clouds  
Wind Chill: 27°   Ceiling: 20000
Heat Index: 35°   Visibility: 10mi
Dew Point: 33°   Wind: 10mph
Humidity: 95%   Direction: 100°E
Pressure: 29.95"   Gusts: NA
Location:  42.58°N, 82.78°W
Report Text: KMTC 222155Z 10009KT 10SM FEW100 SCT170 BKN200 02/01 A2995 RMK SLP157 T00150008
Loading
Personal Weather Stations






























Interactive Weather Map New forecast layout! Learn more

10-Day Weather Forecast

Advertisements
Track Severe Weather on mobile